createdAt,value
2018-10-06T00:00:23.770Z,97.50
2018-10-06T00:02:52.113Z,97.20
2018-10-06T00:05:20.421Z,96.60
2018-10-06T00:07:48.644Z,95.50
2018-10-06T00:10:16.976Z,94.80
2018-10-06T00:12:45.205Z,95.80
2018-10-06T00:15:13.405Z,96.10
2018-10-06T00:17:41.620Z,96.50
2018-10-06T00:20:10.386Z,96.50
2018-10-06T00:22:38.548Z,96.50
2018-10-06T00:25:07.206Z,96.40
2018-10-06T00:27:35.405Z,96.60
2018-10-06T00:30:03.780Z,96.70
2018-10-06T00:32:32.033Z,96.30
2018-10-06T00:35:00.236Z,96.50
2018-10-06T00:37:28.455Z,96.90
2018-10-06T00:39:56.678Z,97.40
2018-10-06T00:42:24.853Z,97.90
2018-10-06T00:44:53.101Z,98.50
2018-10-06T00:47:21.390Z,98.50
2018-10-06T00:49:49.569Z,98.50
2018-10-06T00:52:17.759Z,98.50
2018-10-06T00:54:45.972Z,98.50
2018-10-06T00:57:14.169Z,98.50
2018-10-06T00:59:42.329Z,98.50
2018-10-06T01:02:10.553Z,98.50
2018-10-06T01:04:38.781Z,98.50
2018-10-06T01:07:06.962Z,98.50
2018-10-06T01:09:35.159Z,98.50
2018-10-06T01:12:03.466Z,98.50
2018-10-06T01:14:31.661Z,98.40
2018-10-06T01:16:59.924Z,98.50
2018-10-06T01:19:28.112Z,98.10
2018-10-06T01:21:56.525Z,97.80
2018-10-06T01:24:24.709Z,98.40
2018-10-06T01:26:52.962Z,98.10
2018-10-06T01:29:21.124Z,97.90
2018-10-06T01:31:49.332Z,97.80
2018-10-06T01:34:17.529Z,97.70
2018-10-06T01:36:45.725Z,97.60
2018-10-06T01:39:13.925Z,96.90
2018-10-06T01:41:42.100Z,97.40
2018-10-06T01:44:10.297Z,97.10
2018-10-06T01:46:38.503Z,97.30
2018-10-06T01:49:06.672Z,97.20
2018-10-06T01:51:34.873Z,97.50
2018-10-06T01:54:03.124Z,97.60
2018-10-06T01:56:31.352Z,96.90
2018-10-06T01:58:59.535Z,97.10
2018-10-06T02:01:27.764Z,96.70
2018-10-06T02:03:55.961Z,97.50
2018-10-06T02:06:24.140Z,98.30
2018-10-06T02:08:52.389Z,98.50
2018-10-06T02:11:20.561Z,98.50
2018-10-06T02:13:48.774Z,98.50
2018-10-06T02:16:16.989Z,98.50
2018-10-06T02:18:45.255Z,98.50
2018-10-06T02:21:13.464Z,98.40
2018-10-06T02:23:41.635Z,98.00
2018-10-06T02:26:09.825Z,98.20
2018-10-06T02:28:38.002Z,97.90
2018-10-06T02:31:06.225Z,97.50
2018-10-06T02:33:34.405Z,97.60
2018-10-06T02:36:02.613Z,97.50
2018-10-06T02:38:30.879Z,97.20
2018-10-06T02:40:59.069Z,96.70
2018-10-06T02:43:27.313Z,97.10
2018-10-06T02:45:55.492Z,97.30
2018-10-06T02:48:23.714Z,96.60
2018-10-06T02:50:54.973Z,96.10
2018-10-06T02:53:23.193Z,96.80
2018-10-06T02:55:51.442Z,97.60
2018-10-06T02:58:19.597Z,97.30
2018-10-06T03:00:47.809Z,97.60
2018-10-06T03:03:15.976Z,97.50
2018-10-06T03:05:44.213Z,98.30
2018-10-06T03:08:12.435Z,98.50
2018-10-06T03:10:40.600Z,98.50
2018-10-06T03:13:08.805Z,98.50
2018-10-06T03:15:37.036Z,98.50
2018-10-06T03:18:05.293Z,98.50
2018-10-06T03:20:33.525Z,98.50
2018-10-06T03:23:01.700Z,98.50
2018-10-06T03:25:30.038Z,98.50
2018-10-06T03:27:58.304Z,98.50
2018-10-06T03:30:26.521Z,98.50
2018-10-06T03:32:54.734Z,98.50
2018-10-06T03:35:22.903Z,98.50
2018-10-06T03:37:51.237Z,98.50
2018-10-06T03:40:19.453Z,98.50
2018-10-06T03:42:47.660Z,98.50
2018-10-06T03:45:15.837Z,98.50
2018-10-06T03:47:44.069Z,98.50
2018-10-06T03:50:12.291Z,98.50
2018-10-06T03:52:40.486Z,98.50
2018-10-06T03:55:08.689Z,98.50
2018-10-06T03:57:36.899Z,98.50
2018-10-06T04:00:05.457Z,98.50
2018-10-06T04:02:33.601Z,98.40
2018-10-06T04:05:01.792Z,98.30
2018-10-06T04:07:30.001Z,98.50
2018-10-06T04:09:58.184Z,98.50
2018-10-06T04:12:26.385Z,98.50
2018-10-06T04:14:54.577Z,98.50
2018-10-06T04:17:22.812Z,98.10
2018-10-06T04:19:51.089Z,97.70
2018-10-06T04:22:19.266Z,98.30
2018-10-06T04:24:47.493Z,98.50
2018-10-06T04:27:15.676Z,98.50
2018-10-06T04:29:43.889Z,98.50
2018-10-06T04:32:12.048Z,98.50
2018-10-06T04:34:40.265Z,98.50
2018-10-06T04:37:08.516Z,98.50
2018-10-06T04:39:36.692Z,98.50
2018-10-06T04:42:04.884Z,98.50
2018-10-06T04:44:33.064Z,98.50
2018-10-06T04:47:01.269Z,98.50
2018-10-06T04:49:29.434Z,98.50
2018-10-06T04:51:57.663Z,98.40
2018-10-06T04:54:25.850Z,98.30
2018-10-06T04:56:54.104Z,98.20
2018-10-06T04:59:22.303Z,97.90
2018-10-06T05:01:50.510Z,98.00
2018-10-06T05:04:18.725Z,97.60
2018-10-06T05:06:46.953Z,97.50
2018-10-06T05:09:15.162Z,97.40
2018-10-06T05:11:43.438Z,97.80
2018-10-06T05:14:11.635Z,97.50
2018-10-06T05:16:39.832Z,98.00
2018-10-06T05:19:08.031Z,97.40
2018-10-06T05:21:36.213Z,98.20
2018-10-06T05:24:04.464Z,97.80
2018-10-06T05:26:32.702Z,98.10
2018-10-06T05:29:00.926Z,97.50
2018-10-06T05:31:29.112Z,97.90
2018-10-06T05:33:57.429Z,97.50
2018-10-06T05:36:25.616Z,97.60
2018-10-06T05:38:53.909Z,97.60
2018-10-06T05:41:22.117Z,98.50
2018-10-06T05:43:50.293Z,98.50
2018-10-06T05:46:18.514Z,98.50
2018-10-06T05:48:48.417Z,98.50
2018-10-06T05:51:16.618Z,98.50
2018-10-06T05:53:44.794Z,98.50
2018-10-06T05:56:13.002Z,98.50
2018-10-06T05:58:41.287Z,98.30
2018-10-06T06:01:09.473Z,98.10
2018-10-06T06:03:37.696Z,98.00
2018-10-06T06:06:05.934Z,97.40
2018-10-06T06:08:34.169Z,97.30
2018-10-06T06:11:02.404Z,96.90
2018-10-06T06:13:30.662Z,97.00
2018-10-06T06:15:59.103Z,97.10
2018-10-06T06:18:27.988Z,96.90
2018-10-06T06:20:56.249Z,96.30
2018-10-06T06:23:25.973Z,96.40
2018-10-06T06:25:54.226Z,96.70
2018-10-06T06:28:22.500Z,96.50
2018-10-06T06:30:50.861Z,95.70
2018-10-06T06:33:19.107Z,95.10
2018-10-06T06:35:47.345Z,94.50
2018-10-06T06:38:15.586Z,94.40
2018-10-06T06:40:43.858Z,94.20
2018-10-06T06:43:12.131Z,94.30
2018-10-06T06:45:40.461Z,94.30
2018-10-06T06:48:08.663Z,94.20
2018-10-06T06:50:37.027Z,94.00
2018-10-06T06:53:05.289Z,93.90
2018-10-06T06:55:33.971Z,93.80
2018-10-06T06:58:02.724Z,93.20
2018-10-06T07:00:31.071Z,94.10
2018-10-06T07:02:59.413Z,93.20
2018-10-06T07:05:27.868Z,92.40
2018-10-06T07:07:56.144Z,92.60
2018-10-06T07:10:25.078Z,92.60
2018-10-06T07:12:53.439Z,92.10
2018-10-06T07:15:21.665Z,91.40
2018-10-06T07:17:49.874Z,90.50
2018-10-06T07:20:18.118Z,90.40
2018-10-06T07:22:46.297Z,90.00
2018-10-06T07:25:14.656Z,89.40
2018-10-06T07:27:42.965Z,88.70
2018-10-06T07:30:11.369Z,88.80
2018-10-06T07:32:39.621Z,88.30
2018-10-06T07:35:07.821Z,88.40
2018-10-06T07:37:36.157Z,88.80
2018-10-06T07:40:04.361Z,88.80
2018-10-06T07:42:32.597Z,88.90
2018-10-06T07:45:00.933Z,88.70
2018-10-06T07:47:29.108Z,88.20
2018-10-06T07:49:57.477Z,88.60
2018-10-06T07:52:26.384Z,88.20
2018-10-06T07:54:55.142Z,88.30
2018-10-06T07:57:23.753Z,88.80
2018-10-06T07:59:52.610Z,89.10
2018-10-06T08:02:21.484Z,89.00
2018-10-06T08:04:50.298Z,88.80
2018-10-06T08:07:19.161Z,89.70
2018-10-06T08:09:47.754Z,88.90
2018-10-06T08:12:16.451Z,90.00
2018-10-06T08:14:44.637Z,89.60
2018-10-06T08:17:12.861Z,89.10
2018-10-06T08:19:41.166Z,88.30
2018-10-06T08:22:09.414Z,87.60
2018-10-06T08:24:37.757Z,86.40
2018-10-06T08:27:05.962Z,87.10
2018-10-06T08:29:34.181Z,86.30
2018-10-06T08:32:02.355Z,84.70
2018-10-06T08:34:30.569Z,85.50
2018-10-06T08:36:58.781Z,85.10
2018-10-06T08:39:27.038Z,83.60
2018-10-06T08:41:55.303Z,83.40
2018-10-06T08:44:23.537Z,81.70
2018-10-06T08:46:51.745Z,80.70
2018-10-06T08:49:19.968Z,78.20
2018-10-06T08:51:48.203Z,79.00
2018-10-06T08:54:16.440Z,77.50
2018-10-06T08:56:44.692Z,75.90
2018-10-06T08:59:13.379Z,77.60
2018-10-06T09:01:42.099Z,77.20
2018-10-06T09:04:10.339Z,76.80
2018-10-06T09:06:38.669Z,77.20
2018-10-06T09:09:07.783Z,76.80
2018-10-06T09:11:35.990Z,76.60
2018-10-06T09:14:04.224Z,73.60
2018-10-06T09:16:32.433Z,75.40
2018-10-06T09:19:01.306Z,75.30
2018-10-06T09:21:29.845Z,75.50
2018-10-06T09:23:58.575Z,74.40
2018-10-06T09:26:26.803Z,73.90
2018-10-06T09:28:55.027Z,74.80
2018-10-06T09:31:23.285Z,75.30
2018-10-06T09:33:51.497Z,75.10
2018-10-06T09:36:19.733Z,76.60
2018-10-06T09:38:47.914Z,76.00
2018-10-06T09:41:16.153Z,76.30
2018-10-06T09:43:44.643Z,76.60
2018-10-06T09:46:12.889Z,75.10
2018-10-06T09:48:41.069Z,74.10
2018-10-06T09:51:09.295Z,75.20
2018-10-06T09:53:37.526Z,76.20
2018-10-06T09:56:05.746Z,74.30
2018-10-06T09:58:34.009Z,75.90
2018-10-06T10:01:07.629Z,76.20
2018-10-06T10:03:41.451Z,76.50
2018-10-06T10:06:09.673Z,77.10
2018-10-06T10:08:38.052Z,76.20
2018-10-06T10:11:06.405Z,77.10
2018-10-06T10:13:34.706Z,76.20
2018-10-06T10:16:02.922Z,75.90
2018-10-06T10:18:31.136Z,76.20
2018-10-06T10:20:59.354Z,77.60
2018-10-06T10:23:27.707Z,76.40
2018-10-06T10:25:55.849Z,74.50
2018-10-06T10:28:24.176Z,75.10
2018-10-06T10:30:52.342Z,76.90
2018-10-06T10:33:21.084Z,76.40
2018-10-06T10:35:49.466Z,75.40
2018-10-06T10:38:17.699Z,74.60
2018-10-06T10:40:46.621Z,74.70
2018-10-06T10:43:14.976Z,74.40
2018-10-06T10:45:43.213Z,74.80
2018-10-06T10:48:12.187Z,75.60
2018-10-06T10:50:40.715Z,77.20
2018-10-06T10:53:09.183Z,76.80
2018-10-06T10:55:38.020Z,76.50
2018-10-06T10:58:06.618Z,78.00
2018-10-06T11:00:34.897Z,78.80
2018-10-06T11:03:03.750Z,78.60
2018-10-06T11:05:32.360Z,79.80
2018-10-06T11:08:00.623Z,78.90
2018-10-06T11:10:28.846Z,79.90
2018-10-06T11:12:57.379Z,78.30
2018-10-06T11:15:25.789Z,78.40
2018-10-06T11:17:54.089Z,78.10
2018-10-06T11:20:24.134Z,78.40
2018-10-06T11:22:52.551Z,76.90
2018-10-06T11:25:20.794Z,76.70
2018-10-06T11:27:48.996Z,75.50
2018-10-06T11:30:17.249Z,76.30
2018-10-06T11:32:45.526Z,74.30
2018-10-06T11:35:13.774Z,73.20
2018-10-06T11:37:42.203Z,72.10
2018-10-06T11:40:10.321Z,72.30
2018-10-06T11:42:38.537Z,71.20
2018-10-06T11:45:06.803Z,71.80
2018-10-06T11:47:35.026Z,70.80
2018-10-06T11:50:03.336Z,70.20
2018-10-06T11:52:31.512Z,70.30
2018-10-06T11:54:59.690Z,70.80
2018-10-06T11:57:27.926Z,72.00
2018-10-06T11:59:56.193Z,72.50
2018-10-06T12:02:24.354Z,72.40
2018-10-06T12:04:52.581Z,72.90
2018-10-06T12:07:20.771Z,72.30
2018-10-06T12:09:48.985Z,72.40
2018-10-06T12:12:17.329Z,72.00
2018-10-06T12:14:45.548Z,72.90
2018-10-06T12:17:13.746Z,73.50
2018-10-06T12:19:41.926Z,72.20
2018-10-06T12:22:10.297Z,72.60
2018-10-06T12:24:38.581Z,73.00
2018-10-06T12:27:07.161Z,71.40
2018-10-06T12:29:35.365Z,72.70
2018-10-06T12:32:03.572Z,72.40
2018-10-06T12:34:31.788Z,71.50
2018-10-06T12:37:00.088Z,71.30
2018-10-06T12:39:28.894Z,70.80
2018-10-06T12:41:57.147Z,70.30
2018-10-06T12:44:25.315Z,69.50
2018-10-06T12:46:53.530Z,69.50
2018-10-06T12:49:21.813Z,69.20
2018-10-06T12:51:50.026Z,70.10
2018-10-06T12:54:18.321Z,70.70
2018-10-06T12:56:46.488Z,69.90
2018-10-06T12:59:14.770Z,69.20
2018-10-06T13:01:42.953Z,70.00
2018-10-06T13:04:11.157Z,71.20
2018-10-06T13:06:39.345Z,69.60
2018-10-06T13:09:08.980Z,70.40
2018-10-06T13:11:37.186Z,70.80
2018-10-06T13:14:05.420Z,71.80
2018-10-06T13:16:33.628Z,73.20
2018-10-06T13:19:01.861Z,73.50
2018-10-06T13:21:30.205Z,73.50
2018-10-06T13:23:58.518Z,72.80
2018-10-06T13:26:26.790Z,73.10
2018-10-06T13:28:55.002Z,73.10
2018-10-06T13:31:23.169Z,73.30
2018-10-06T13:33:51.446Z,73.30
2018-10-06T13:36:19.621Z,72.70
2018-10-06T13:38:47.829Z,72.00
2018-10-06T13:41:16.046Z,71.10
2018-10-06T13:43:44.204Z,71.20
2018-10-06T13:46:12.453Z,70.30
2018-10-06T13:48:40.646Z,69.00
2018-10-06T13:51:08.986Z,68.50
2018-10-06T13:53:37.188Z,68.80
2018-10-06T13:56:05.386Z,68.70
2018-10-06T13:58:33.666Z,68.80
2018-10-06T14:01:01.867Z,68.20
2018-10-06T14:03:30.066Z,69.30
2018-10-06T14:05:58.282Z,69.40
2018-10-06T14:08:26.497Z,69.80
2018-10-06T14:10:54.724Z,69.60
2018-10-06T14:13:22.937Z,69.60
2018-10-06T14:15:51.202Z,69.30
2018-10-06T14:18:19.426Z,68.60
2018-10-06T14:20:47.606Z,68.80
2018-10-06T14:23:16.709Z,68.20
2018-10-06T14:25:44.944Z,67.40
2018-10-06T14:28:13.158Z,68.50
2018-10-06T14:30:41.353Z,68.80
2018-10-06T14:33:09.529Z,68.80
2018-10-06T14:35:37.761Z,68.60
2018-10-06T14:38:05.942Z,68.30
2018-10-06T14:40:34.492Z,66.90
2018-10-06T14:43:02.787Z,67.90
2018-10-06T14:45:30.989Z,67.40
2018-10-06T14:47:59.179Z,67.60
2018-10-06T14:50:27.356Z,67.90
2018-10-06T14:52:55.553Z,68.70
2018-10-06T14:55:23.833Z,68.40
2018-10-06T14:57:52.043Z,69.70
2018-10-06T15:00:20.265Z,70.20
2018-10-06T15:02:48.434Z,69.90
2018-10-06T15:05:16.752Z,69.20
2018-10-06T15:07:45.271Z,69.80
2018-10-06T15:10:13.564Z,70.20
2018-10-06T15:12:41.824Z,71.50
2018-10-06T15:15:10.054Z,70.90
2018-10-06T15:17:38.985Z,71.80
2018-10-06T15:20:07.268Z,72.60
2018-10-06T15:22:35.624Z,72.90
2018-10-06T15:25:04.037Z,73.50
2018-10-06T15:27:32.288Z,73.90
2018-10-06T15:30:00.464Z,74.40
2018-10-06T15:32:29.148Z,74.90
2018-10-06T15:34:57.578Z,75.20
2018-10-06T15:37:26.130Z,76.00
2018-10-06T15:39:54.600Z,75.70
2018-10-06T15:42:22.989Z,76.50
2018-10-06T15:44:51.249Z,77.10
2018-10-06T15:47:19.590Z,77.40
2018-10-06T15:49:47.824Z,78.00
2018-10-06T15:52:16.093Z,78.40
2018-10-06T15:54:44.305Z,78.80
2018-10-06T15:57:12.549Z,79.20
2018-10-06T15:59:40.800Z,80.60
2018-10-06T16:02:09.033Z,81.30
2018-10-06T16:04:37.256Z,82.00
2018-10-06T16:07:05.708Z,82.40
2018-10-06T16:09:33.923Z,82.70
2018-10-06T16:12:02.121Z,83.50
2018-10-06T16:14:30.394Z,84.20
2018-10-06T16:16:58.727Z,84.90
2018-10-06T16:19:26.965Z,85.60
2018-10-06T16:21:55.237Z,86.00
2018-10-06T16:24:23.545Z,86.30
2018-10-06T16:26:51.823Z,86.80
2018-10-06T16:29:20.053Z,87.00
2018-10-06T16:31:48.348Z,87.10
2018-10-06T16:34:16.567Z,87.10
2018-10-06T16:36:44.745Z,87.60
2018-10-06T16:39:12.997Z,88.00
2018-10-06T16:41:41.218Z,88.30
2018-10-06T16:44:09.405Z,88.80
2018-10-06T16:46:37.645Z,88.90
2018-10-06T16:49:06.078Z,88.90
2018-10-06T16:51:34.315Z,89.10
2018-10-06T16:54:02.570Z,89.00
2018-10-06T16:56:30.923Z,88.70
2018-10-06T16:58:59.151Z,88.70
2018-10-06T17:01:27.494Z,88.50
2018-10-06T17:03:55.866Z,88.20
2018-10-06T17:06:24.240Z,87.40
2018-10-06T17:08:52.468Z,86.80
2018-10-06T17:11:21.144Z,86.80
2018-10-06T17:13:50.008Z,87.10
2018-10-06T17:16:18.312Z,87.20
2018-10-06T17:18:46.581Z,87.80
2018-10-06T17:21:14.881Z,88.50
2018-10-06T17:23:43.130Z,88.70
2018-10-06T17:26:11.817Z,88.60
2018-10-06T17:28:40.871Z,88.60
2018-10-06T17:31:10.047Z,88.70
2018-10-06T17:33:39.257Z,88.70
2018-10-06T17:36:07.494Z,88.70
2018-10-06T17:38:35.858Z,88.60
2018-10-06T17:41:04.729Z,88.60
2018-10-06T17:43:33.058Z,88.80
2018-10-06T17:46:01.481Z,88.80
2018-10-06T17:48:29.708Z,88.70
2018-10-06T17:50:58.480Z,88.80
2018-10-06T17:53:26.898Z,88.90
2018-10-06T17:55:55.137Z,89.00
2018-10-06T17:58:23.479Z,89.50
2018-10-06T18:00:51.669Z,89.50
2018-10-06T18:03:19.853Z,89.90
2018-10-06T18:05:48.099Z,90.00
2018-10-06T18:08:16.289Z,89.90
2018-10-06T18:10:44.489Z,90.00
2018-10-06T18:13:12.684Z,89.90
2018-10-06T18:15:41.002Z,89.80
2018-10-06T18:18:09.225Z,89.80
2018-10-06T18:20:37.668Z,89.70
2018-10-06T18:23:05.840Z,89.60
2018-10-06T18:25:34.073Z,89.60
2018-10-06T18:28:02.241Z,89.40
2018-10-06T18:30:30.441Z,89.40
2018-10-06T18:32:58.625Z,89.30
2018-10-06T18:35:26.846Z,89.50
2018-10-06T18:37:55.089Z,89.30
2018-10-06T18:40:23.257Z,89.40
2018-10-06T18:42:51.587Z,89.10
2018-10-06T18:45:19.841Z,88.90
2018-10-06T18:47:48.275Z,89.00
2018-10-06T18:50:16.441Z,89.00
2018-10-06T18:52:44.641Z,89.40
2018-10-06T18:55:12.841Z,89.40
2018-10-06T18:57:41.111Z,89.60
2018-10-06T19:00:09.319Z,89.60
2018-10-06T19:02:37.489Z,89.60
2018-10-06T19:05:05.713Z,89.50
2018-10-06T19:07:34.165Z,89.80
2018-10-06T19:10:02.504Z,90.70
2018-10-06T19:12:30.812Z,91.10
2018-10-06T19:14:58.993Z,91.30
2018-10-06T19:17:27.204Z,91.30
2018-10-06T19:19:55.403Z,91.40
2018-10-06T19:22:26.729Z,91.80
2018-10-06T19:24:54.937Z,92.40
2018-10-06T19:27:23.525Z,92.50
2018-10-06T19:29:51.736Z,92.40
2018-10-06T19:32:19.941Z,92.50
2018-10-06T19:34:48.201Z,92.70
2018-10-06T19:37:16.915Z,92.70
2018-10-06T19:39:45.239Z,92.40
2018-10-06T19:42:13.636Z,92.30
2018-10-06T19:44:41.810Z,92.40
2018-10-06T19:47:10.044Z,92.70
2018-10-06T19:49:41.228Z,93.40
2018-10-06T19:52:09.562Z,93.30
2018-10-06T19:54:37.876Z,93.40
2018-10-06T19:57:06.097Z,93.10
2018-10-06T19:59:34.295Z,93.00
2018-10-06T20:02:02.472Z,93.10
2018-10-06T20:04:30.900Z,93.50
2018-10-06T20:06:59.213Z,93.20
2018-10-06T20:09:30.163Z,93.10
2018-10-06T20:11:58.520Z,92.90
2018-10-06T20:14:27.815Z,92.70
2018-10-06T20:16:56.035Z,93.30
2018-10-06T20:19:25.274Z,93.10
2018-10-06T20:21:53.650Z,93.30
2018-10-06T20:24:21.995Z,93.30
2018-10-06T20:26:50.384Z,93.30
2018-10-06T20:29:18.709Z,93.30
2018-10-06T20:31:47.041Z,93.40
2018-10-06T20:34:15.237Z,94.20
2018-10-06T20:36:43.497Z,93.50
2018-10-06T20:39:13.409Z,93.60
2018-10-06T20:41:41.754Z,94.10
2018-10-06T20:44:10.081Z,93.60
2018-10-06T20:46:39.104Z,93.80
2018-10-06T20:49:07.385Z,93.70
2018-10-06T20:51:35.613Z,93.50
2018-10-06T20:54:03.904Z,93.60
2018-10-06T20:56:32.337Z,93.90
2018-10-06T20:59:00.587Z,94.20
2018-10-06T21:01:31.969Z,94.00
2018-10-06T21:04:00.234Z,94.40
2018-10-06T21:06:29.100Z,95.70
2018-10-06T21:08:57.456Z,95.60
2018-10-06T21:11:25.673Z,95.50
2018-10-06T21:13:53.867Z,95.60
2018-10-06T21:16:22.057Z,95.50
2018-10-06T21:18:50.246Z,96.10
2018-10-06T21:21:18.465Z,95.90
2018-10-06T21:23:46.663Z,95.70
2018-10-06T21:26:14.856Z,95.60
2018-10-06T21:28:43.252Z,95.40
2018-10-06T21:31:11.405Z,95.20
2018-10-06T21:33:39.613Z,94.90
2018-10-06T21:36:07.970Z,94.90
2018-10-06T21:38:36.208Z,95.10
2018-10-06T21:41:04.368Z,95.00
2018-10-06T21:43:32.550Z,94.60
2018-10-06T21:46:00.753Z,94.70
2018-10-06T21:48:28.960Z,94.40
2018-10-06T21:50:57.187Z,94.00
2018-10-06T21:53:32.017Z,93.90
2018-10-06T21:57:03.332Z,93.90
2018-10-06T21:59:31.561Z,93.80
2018-10-06T22:01:59.712Z,94.00
2018-10-06T22:04:27.919Z,93.90
2018-10-06T22:06:56.137Z,94.10
2018-10-06T22:09:24.300Z,94.20
2018-10-06T22:11:52.509Z,94.20
2018-10-06T22:14:20.678Z,94.10
2018-10-06T22:16:48.881Z,93.70
2018-10-06T22:19:17.090Z,93.70
2018-10-06T22:21:45.247Z,93.50
2018-10-06T22:24:13.436Z,93.60
2018-10-06T22:26:41.657Z,93.70
2018-10-06T22:29:09.933Z,93.70
2018-10-06T22:31:38.124Z,93.60
2018-10-06T22:34:06.402Z,93.70
2018-10-06T22:36:34.570Z,94.00
2018-10-06T22:39:03.729Z,93.50
2018-10-06T22:41:31.937Z,93.70
2018-10-06T22:44:00.158Z,93.70
2018-10-06T22:46:28.358Z,93.80
2018-10-06T22:48:56.545Z,93.90
2018-10-06T22:51:24.761Z,94.30
2018-10-06T22:53:59.728Z,94.40
2018-10-06T22:56:27.919Z,94.10
2018-10-06T22:58:56.138Z,94.00
2018-10-06T23:01:24.380Z,94.10
2018-10-06T23:03:52.593Z,94.10
2018-10-06T23:06:20.969Z,94.20
2018-10-06T23:08:49.213Z,94.10
2018-10-06T23:11:17.412Z,93.90
2018-10-06T23:13:45.580Z,94.30
2018-10-06T23:16:13.800Z,94.30
2018-10-06T23:18:41.961Z,94.60
2018-10-06T23:21:10.173Z,94.40
2018-10-06T23:23:38.404Z,94.40
2018-10-06T23:26:06.666Z,94.40
2018-10-06T23:28:34.920Z,94.10
2018-10-06T23:31:03.080Z,94.30
2018-10-06T23:33:31.397Z,94.30
2018-10-06T23:35:59.576Z,93.90
2018-10-06T23:38:27.774Z,93.80
2018-10-06T23:40:55.966Z,93.50
2018-10-06T23:43:24.164Z,93.60
2018-10-06T23:45:52.663Z,93.60
2018-10-06T23:48:20.840Z,93.60
2018-10-06T23:50:49.056Z,93.30
2018-10-06T23:53:17.269Z,93.60
2018-10-06T23:55:45.423Z,93.80
2018-10-06T23:58:13.621Z,93.60
